Terminal Aerodrome Forecast
Issued by NWS

Home | Current Version | Previous Version | Graphics & Text | Print | Product List | Glossary On
Versions: 1 2 3 4 5 6 7 8 9 10 11 12 13 14 15 16 17 18 19 20 21 22 23 24 25 26 27 28 29 30 31 32 33 34 35 36 37 38
000
FTUS45 KGGW 302300
TAFOLF
TAF
KOLF 302320Z 3100/3124 VRB05KT P6SM SCT020
     FM310600 07009KT P6SM VCSH FEW003 OVC021
     FM310900 07012G20KT 6SM -SHSN BR BKN015 OVC023
     FM311200 07014G23KT 1SM -SN BKN010 OVC030=

USA.gov is the U.S. government's official web portal to all federal, state and local government web resources and services.